createdAt,value
2018-10-11T00:02:08.541Z,27.30
2018-10-11T00:04:40.531Z,27.80
2018-10-11T00:07:12.536Z,25.93
2018-10-11T00:09:44.501Z,25.50
2018-10-11T00:12:16.553Z,25.93
2018-10-11T00:14:48.569Z,25.40
2018-10-11T00:17:20.566Z,24.53
2018-10-11T00:19:52.612Z,25.33
2018-10-11T00:22:24.626Z,24.67
2018-10-11T00:24:56.659Z,22.63
2018-10-11T00:27:28.656Z,25.37
2018-10-11T00:30:00.698Z,25.10
2018-10-11T00:32:32.691Z,24.93
2018-10-11T00:35:04.760Z,25.30
2018-10-11T00:37:36.743Z,27.50
2018-10-11T00:40:09.480Z,26.33
2018-10-11T00:42:41.467Z,24.67
2018-10-11T00:45:13.501Z,26.07
2018-10-11T00:47:45.543Z,25.87
2018-10-11T00:50:17.543Z,26.73
2018-10-11T00:52:49.513Z,24.83
2018-10-11T00:55:21.602Z,25.90
2018-10-11T00:57:53.626Z,26.60
2018-10-11T01:00:25.696Z,25.77
2018-10-11T01:02:57.686Z,23.87
2018-10-11T01:05:29.697Z,27.33
2018-10-11T01:08:01.670Z,26.77
2018-10-11T01:10:33.695Z,27.70
2018-10-11T01:13:05.954Z,26.33
2018-10-11T01:15:38.113Z,28.17
2018-10-11T01:18:10.126Z,28.33
2018-10-11T01:20:42.142Z,28.20
2018-10-11T01:23:14.153Z,26.90
2018-10-11T01:25:46.202Z,30.47
2018-10-11T01:28:18.232Z,29.00
2018-10-11T01:30:56.107Z,27.40
2018-10-11T01:33:28.133Z,29.87
2018-10-11T01:36:00.115Z,30.03
2018-10-11T01:38:32.139Z,28.90
2018-10-11T01:41:04.279Z,27.13
2018-10-11T01:43:36.301Z,30.17
2018-10-11T01:46:08.296Z,28.23
2018-10-11T01:48:40.358Z,32.10
2018-10-11T01:51:12.330Z,31.50
2018-10-11T01:53:44.350Z,30.67
2018-10-11T01:56:16.330Z,33.63
2018-10-11T01:58:48.356Z,32.80
2018-10-11T02:01:20.323Z,32.10
2018-10-11T02:03:52.357Z,32.30
2018-10-11T02:06:24.354Z,31.83
2018-10-11T02:08:56.410Z,32.37
2018-10-11T02:11:28.437Z,33.10
2018-10-11T02:14:00.430Z,31.70
2018-10-11T02:16:33.081Z,26.10
2018-10-11T02:19:05.106Z,31.80
2018-10-11T02:21:37.153Z,33.03
2018-10-11T02:24:09.720Z,33.57
2018-10-11T02:26:41.714Z,31.43
2018-10-11T02:29:13.689Z,33.43
2018-10-11T02:31:45.732Z,31.63
2018-10-11T02:34:17.713Z,32.20
2018-10-11T02:36:49.704Z,33.73
2018-10-11T02:39:22.507Z,33.43
2018-10-11T02:41:54.525Z,33.03
2018-10-11T02:44:26.550Z,31.30
2018-10-11T02:46:58.541Z,33.43
2018-10-11T02:49:30.566Z,31.47
2018-10-11T02:52:02.537Z,32.03
2018-10-11T02:54:34.548Z,33.30
2018-10-11T02:57:16.866Z,32.00
2018-10-11T02:59:48.896Z,31.23
2018-10-11T03:02:21.390Z,33.80
2018-10-11T03:04:53.442Z,32.50
2018-10-11T03:07:26.233Z,32.93
2018-10-11T03:09:58.318Z,32.33
2018-10-11T03:12:30.317Z,32.70
2018-10-11T03:15:02.366Z,34.00
2018-10-11T03:17:34.367Z,30.70
2018-10-11T03:20:06.393Z,33.07
2018-10-11T03:22:38.414Z,31.87
2018-10-11T03:25:10.447Z,31.77
2018-10-11T03:27:42.438Z,30.27
2018-10-11T03:30:14.439Z,32.10
2018-10-11T03:32:48.140Z,32.30
2018-10-11T03:35:23.387Z,33.30
2018-10-11T03:37:58.133Z,32.90
2018-10-11T03:40:32.962Z,31.87
2018-10-11T03:43:07.790Z,31.97
2018-10-11T03:45:43.220Z,32.27
2018-10-11T03:48:17.710Z,29.07
2018-10-11T03:50:49.734Z,31.90
2018-10-11T03:53:24.179Z,30.87
2018-10-11T03:55:58.561Z,31.47
2018-10-11T03:58:34.194Z,32.77
2018-10-11T04:01:08.487Z,31.70
2018-10-11T04:03:41.725Z,31.03
2018-10-11T04:06:15.648Z,33.43
2018-10-11T04:08:50.139Z,29.03
2018-10-11T04:11:24.912Z,31.47
2018-10-11T04:13:57.734Z,32.50
2018-10-11T04:16:32.042Z,32.93
2018-10-11T04:19:06.816Z,32.10
2018-10-11T04:21:41.140Z,33.67
2018-10-11T04:24:15.278Z,28.13
2018-10-11T04:26:50.341Z,26.93
2018-10-11T04:29:25.063Z,27.33
2018-10-11T04:31:57.059Z,29.47
2018-10-11T04:34:29.077Z,27.83
2018-10-11T04:37:01.078Z,30.63
2018-10-11T04:39:33.196Z,26.40
2018-10-11T04:42:05.645Z,28.47
2018-10-11T04:44:37.674Z,27.77
2018-10-11T04:47:09.663Z,27.93
2018-10-11T04:49:41.685Z,27.50
2018-10-11T04:52:13.679Z,28.17
2018-10-11T04:54:45.671Z,29.60
2018-10-11T04:57:17.658Z,28.13
2018-10-11T04:59:49.672Z,28.53
2018-10-11T05:02:21.652Z,25.17
2018-10-11T05:04:53.670Z,29.40
2018-10-11T05:07:25.825Z,28.63
2018-10-11T05:09:57.831Z,28.87
2018-10-11T05:12:29.854Z,28.23
2018-10-11T05:15:01.883Z,29.90
2018-10-11T05:17:33.907Z,29.43
2018-10-11T05:20:07.137Z,28.27
2018-10-11T05:22:39.134Z,29.20
2018-10-11T05:25:11.177Z,29.07
2018-10-11T05:27:43.196Z,29.00
2018-10-11T05:30:15.190Z,28.63
2018-10-11T05:32:47.231Z,24.43
2018-10-11T05:35:19.210Z,28.30
2018-10-11T05:37:51.221Z,27.10
2018-10-11T05:40:23.233Z,26.87
2018-10-11T05:42:55.274Z,29.07
2018-10-11T05:45:27.743Z,27.10
2018-10-11T05:47:59.730Z,28.67
2018-10-11T05:50:32.067Z,26.73
2018-10-11T05:53:04.108Z,21.27
2018-10-11T05:55:36.151Z,26.87
2018-10-11T05:58:08.152Z,28.83
2018-10-11T06:00:40.196Z,27.20
2018-10-11T06:03:12.173Z,26.77
2018-10-11T06:05:44.212Z,25.60
2018-10-11T06:08:16.209Z,26.30
2018-10-11T06:10:48.685Z,26.90
2018-10-11T06:13:20.761Z,27.33
2018-10-11T06:15:52.781Z,25.67
2018-10-11T06:18:24.770Z,28.30
2018-10-11T06:20:56.791Z,27.53
2018-10-11T06:23:28.781Z,26.17
2018-10-11T06:26:00.811Z,26.77
2018-10-11T06:28:32.937Z,25.97
2018-10-11T06:31:04.991Z,26.40
2018-10-11T06:33:37.001Z,25.80
2018-10-11T06:36:09.053Z,26.67
2018-10-11T06:38:41.099Z,26.23
2018-10-11T06:41:13.149Z,25.10
2018-10-11T06:43:45.162Z,22.93
2018-10-11T06:46:17.181Z,25.07
2018-10-11T06:48:49.210Z,22.27
2018-10-11T06:51:21.211Z,23.63
2018-10-11T06:53:53.253Z,18.37
2018-10-11T06:56:25.238Z,22.90
2018-10-11T06:58:57.252Z,24.47
2018-10-11T07:01:29.250Z,23.63
2018-10-11T07:04:01.263Z,23.00
2018-10-11T07:06:33.286Z,17.87
2018-10-11T07:09:06.894Z,20.43
2018-10-11T07:11:38.876Z,19.00
2018-10-11T07:14:10.884Z,19.87
2018-10-11T07:16:42.857Z,20.33
2018-10-11T07:19:14.903Z,19.57
2018-10-11T07:21:46.879Z,19.63
2018-10-11T07:24:18.995Z,19.80
2018-10-11T07:26:50.983Z,18.40
2018-10-11T07:29:23.017Z,17.23
2018-10-11T07:31:55.004Z,18.87
2018-10-11T07:34:27.017Z,18.23
2018-10-11T07:36:59.049Z,18.47
2018-10-11T07:39:31.079Z,19.23
2018-10-11T07:42:03.108Z,18.05
2018-10-11T07:44:35.113Z,18.40
2018-10-11T07:47:07.201Z,18.73
2018-10-11T07:49:39.206Z,15.50
2018-10-11T07:52:11.207Z,18.30
2018-10-11T07:54:43.194Z,17.05
2018-10-11T07:57:15.213Z,17.48
2018-10-11T07:59:47.193Z,17.57
2018-10-11T08:02:19.202Z,17.02
2018-10-11T08:04:51.212Z,17.70
2018-10-11T08:07:23.266Z,17.65
2018-10-11T08:09:55.270Z,16.97
2018-10-11T08:12:27.293Z,16.50
2018-10-11T08:14:59.330Z,16.27
2018-10-11T08:17:31.976Z,16.70
2018-10-11T08:20:03.922Z,15.60
2018-10-11T08:22:35.804Z,16.93
2018-10-11T08:25:08.082Z,16.20
2018-10-11T08:27:39.858Z,16.35
2018-10-11T08:30:11.951Z,16.50
2018-10-11T08:32:44.320Z,15.32
2018-10-11T08:35:16.143Z,15.50
2018-10-11T08:37:48.185Z,16.20
2018-10-11T08:40:20.668Z,15.55
2018-10-11T08:42:52.189Z,15.68
2018-10-11T08:45:24.216Z,14.98
2018-10-11T08:47:56.217Z,15.48
2018-10-11T08:50:28.260Z,15.63
2018-10-11T08:53:00.310Z,15.30
2018-10-11T08:55:32.414Z,14.93
2018-10-11T08:58:04.366Z,15.18
2018-10-11T09:00:36.399Z,14.98
2018-10-11T09:03:08.485Z,16.67
2018-10-11T09:05:40.544Z,17.25
2018-10-11T09:08:12.562Z,15.93
2018-10-11T09:10:44.639Z,16.07
2018-10-11T09:13:16.634Z,15.38
2018-10-11T09:15:48.622Z,15.45
2018-10-11T09:18:20.662Z,14.68
2018-10-11T09:20:52.661Z,14.23
2018-10-11T09:23:24.842Z,15.10
2018-10-11T09:25:56.829Z,14.68
2018-10-11T09:28:28.830Z,14.70
2018-10-11T09:31:00.859Z,14.60
2018-10-11T09:33:33.132Z,14.60
2018-10-11T09:36:04.925Z,16.05
2018-10-11T09:38:36.999Z,14.28
2018-10-11T09:41:09.134Z,14.30
2018-10-11T09:43:41.278Z,14.30
2018-10-11T09:46:13.306Z,13.00
2018-10-11T09:48:45.382Z,14.55
2018-10-11T09:51:17.364Z,13.88
2018-10-11T09:53:49.384Z,13.62
2018-10-11T09:56:21.432Z,14.53
2018-10-11T09:58:53.431Z,14.83
2018-10-11T10:01:31.189Z,14.18
2018-10-11T10:04:03.241Z,14.68
2018-10-11T10:06:35.246Z,14.05
2018-10-11T10:09:07.324Z,14.28
2018-10-11T10:11:39.338Z,14.47
2018-10-11T10:14:11.375Z,13.65
2018-10-11T10:16:43.406Z,13.68
2018-10-11T10:19:15.439Z,13.30
2018-10-11T10:21:47.426Z,15.03
2018-10-11T10:24:19.722Z,13.98
2018-10-11T10:26:51.811Z,14.75
2018-10-11T10:29:23.776Z,13.25
2018-10-11T10:31:55.944Z,13.78
2018-10-11T10:34:28.178Z,13.43
2018-10-11T10:37:00.222Z,13.50
2018-10-11T10:39:32.238Z,14.07
2018-10-11T10:42:04.230Z,13.25
2018-10-11T10:44:36.247Z,12.73
2018-10-11T10:47:08.270Z,12.90
2018-10-11T10:49:40.282Z,12.68
2018-10-11T10:52:12.565Z,13.20
2018-10-11T10:54:44.607Z,14.23
2018-10-11T10:57:16.614Z,12.80
2018-10-11T10:59:48.655Z,14.40
2018-10-11T11:02:20.671Z,13.70
2018-10-11T11:04:52.689Z,13.55
2018-10-11T11:07:24.712Z,14.53
2018-10-11T11:09:56.719Z,12.18
2018-10-11T11:12:28.723Z,14.05
2018-10-11T11:15:00.779Z,12.82
2018-10-11T11:17:32.793Z,13.95
2018-10-11T11:20:04.826Z,12.58
2018-10-11T11:22:36.813Z,13.62
2018-10-11T11:25:08.958Z,13.10
2018-10-11T11:27:40.995Z,13.25
2018-10-11T11:30:13.034Z,12.25
2018-10-11T11:32:45.034Z,12.78
2018-10-11T11:35:17.068Z,13.98
2018-10-11T11:37:49.050Z,12.33
2018-10-11T11:40:21.063Z,13.60
2018-10-11T11:42:53.100Z,12.68
2018-10-11T11:45:25.171Z,11.35
2018-10-11T11:47:57.204Z,12.25
2018-10-11T11:50:29.258Z,12.43
2018-10-11T11:53:01.256Z,13.75
2018-10-11T11:55:33.306Z,12.90
2018-10-11T11:58:05.493Z,12.37
2018-10-11T12:00:37.390Z,13.30
2018-10-11T12:03:09.400Z,11.95
2018-10-11T12:05:41.571Z,11.80
2018-10-11T12:08:13.515Z,13.48
2018-10-11T12:10:45.559Z,12.13
2018-10-11T12:13:17.542Z,12.73
2018-10-11T12:15:49.547Z,12.75
2018-10-11T12:18:21.588Z,12.70
2018-10-11T12:20:53.558Z,12.70
2018-10-11T12:23:25.575Z,12.37
2018-10-11T12:25:57.573Z,11.45
2018-10-11T12:28:29.626Z,12.68
2018-10-11T12:31:01.651Z,11.75
2018-10-11T12:33:33.673Z,12.05
2018-10-11T12:36:05.680Z,12.55
2018-10-11T12:38:37.764Z,12.73
2018-10-11T12:41:09.813Z,12.33
2018-10-11T12:43:41.815Z,11.57
2018-10-11T12:46:13.946Z,12.20
2018-10-11T12:48:45.963Z,11.65
2018-10-11T12:51:17.973Z,12.18
2018-10-11T12:53:50.019Z,12.37
2018-10-11T12:56:22.099Z,12.23
2018-10-11T12:58:54.050Z,11.70
2018-10-11T13:01:26.090Z,11.97
2018-10-11T13:03:58.124Z,11.83
2018-10-11T13:06:30.145Z,12.73
2018-10-11T13:09:02.147Z,11.50
2018-10-11T13:11:34.206Z,12.95
2018-10-11T13:14:06.241Z,13.05
2018-10-11T13:16:38.286Z,12.65
2018-10-11T13:19:10.301Z,12.35
2018-10-11T13:21:42.297Z,12.30
2018-10-11T13:24:14.301Z,11.30
2018-10-11T13:26:46.291Z,10.98
2018-10-11T13:29:18.322Z,12.60
2018-10-11T13:31:50.358Z,11.88
2018-10-11T13:34:22.402Z,11.78
2018-10-11T13:36:54.421Z,12.23
2018-10-11T13:39:26.411Z,12.28
2018-10-11T13:41:58.449Z,13.53
2018-10-11T13:44:30.454Z,13.43
2018-10-11T13:47:02.477Z,12.33
2018-10-11T13:49:34.509Z,12.95
2018-10-11T13:52:06.535Z,12.05
2018-10-11T13:54:38.538Z,12.82
2018-10-11T13:57:10.612Z,12.53
2018-10-11T13:59:42.622Z,13.03
2018-10-11T14:02:14.673Z,12.60
2018-10-11T14:04:46.820Z,13.65
2018-10-11T14:07:18.697Z,12.50
2018-10-11T14:09:50.716Z,12.35
2018-10-11T14:12:22.780Z,12.80
2018-10-11T14:14:54.766Z,11.40
2018-10-11T14:17:26.803Z,11.97
2018-10-11T14:19:58.818Z,12.20
2018-10-11T14:22:31.033Z,12.20
2018-10-11T14:25:03.107Z,10.60
2018-10-11T14:27:35.102Z,12.05
2018-10-11T14:30:07.146Z,11.33
2018-10-11T14:32:39.237Z,10.85
2018-10-11T14:35:11.362Z,11.18
2018-10-11T14:37:43.441Z,11.22
2018-10-11T14:40:15.474Z,11.22
2018-10-11T14:42:47.691Z,11.57
2018-10-11T14:45:19.734Z,11.33
2018-10-11T14:47:51.802Z,11.22
2018-10-11T14:50:23.851Z,11.60
2018-10-11T14:52:55.855Z,11.22
2018-10-11T14:55:27.900Z,10.48
2018-10-11T14:57:59.923Z,10.35
2018-10-11T15:00:31.962Z,11.63
2018-10-11T15:03:04.050Z,11.18
2018-10-11T15:05:36.189Z,11.63
2018-10-11T15:08:08.159Z,10.90
2018-10-11T15:10:40.231Z,10.63
2018-10-11T15:13:12.246Z,11.05
2018-10-11T15:15:44.464Z,11.70
2018-10-11T15:18:17.171Z,11.30
2018-10-11T15:20:49.274Z,12.07
2018-10-11T15:23:21.283Z,10.97
2018-10-11T15:25:53.354Z,10.50
2018-10-11T15:28:25.333Z,11.57
2018-10-11T15:30:57.357Z,10.70
2018-10-11T15:33:29.356Z,11.07
2018-10-11T15:36:01.505Z,12.60
2018-10-11T15:38:33.578Z,11.40
2018-10-11T15:41:05.643Z,10.70
2018-10-11T15:43:37.645Z,11.47
2018-10-11T15:46:09.647Z,11.63
2018-10-11T15:48:41.651Z,11.53
2018-10-11T15:51:13.735Z,11.43
2018-10-11T15:53:45.743Z,11.33
2018-10-11T15:56:17.786Z,10.57
2018-10-11T15:58:49.831Z,12.10
2018-10-11T16:01:21.841Z,11.53
2018-10-11T16:03:54.229Z,11.83
2018-10-11T16:06:26.276Z,11.53
2018-10-11T16:08:58.373Z,11.17
2018-10-11T16:11:33.497Z,11.90
2018-10-11T16:14:05.478Z,11.40
2018-10-11T16:16:37.507Z,10.27
2018-10-11T16:19:09.524Z,11.30
2018-10-11T16:21:41.559Z,11.53
2018-10-11T16:24:13.569Z,12.00
2018-10-11T16:26:45.587Z,11.90
2018-10-11T16:29:17.591Z,12.40
2018-10-11T16:31:49.629Z,13.07
2018-10-11T16:34:21.638Z,11.93
2018-10-11T16:36:53.665Z,12.57
2018-10-11T16:39:25.720Z,12.13
2018-10-11T16:41:57.703Z,11.67
2018-10-11T16:44:29.724Z,12.33
2018-10-11T16:47:01.713Z,13.00
2018-10-11T16:49:33.771Z,10.97
2018-10-11T16:52:05.756Z,11.37
2018-10-11T16:54:41.262Z,12.27
2018-10-11T16:57:14.710Z,11.63
2018-10-11T16:59:46.748Z,12.30
2018-10-11T17:02:18.746Z,11.37
2018-10-11T17:04:50.816Z,12.90
2018-10-11T17:07:23.091Z,11.93
2018-10-11T17:09:55.181Z,12.83
2018-10-11T17:12:27.173Z,13.40
2018-10-11T17:14:59.146Z,13.97
2018-10-11T17:17:31.171Z,13.60
2018-10-11T17:20:03.193Z,15.43
2018-10-11T17:22:35.227Z,12.17
2018-10-11T17:25:07.250Z,12.80
2018-10-11T17:27:39.276Z,13.10
2018-10-11T17:30:11.294Z,13.70
2018-10-11T17:32:43.280Z,13.30
2018-10-11T17:35:15.397Z,14.10
2018-10-11T17:37:47.374Z,14.00
2018-10-11T17:40:19.407Z,14.27
2018-10-11T17:42:51.401Z,12.57
2018-10-11T17:45:23.440Z,13.43
2018-10-11T17:47:55.463Z,13.50
2018-10-11T17:50:27.497Z,14.67
2018-10-11T17:52:59.499Z,12.33
2018-10-11T17:55:31.520Z,13.40
2018-10-11T17:58:03.515Z,12.17
2018-10-11T18:00:35.592Z,12.30
2018-10-11T18:03:07.619Z,12.43
2018-10-11T18:05:41.031Z,12.00
2018-10-11T18:08:13.487Z,12.90
2018-10-11T18:10:45.488Z,11.87
2018-10-11T18:13:17.560Z,11.53
2018-10-11T18:15:49.581Z,12.37
2018-10-11T18:18:21.639Z,12.47
2018-10-11T18:20:53.783Z,11.93
2018-10-11T18:23:25.855Z,11.80
2018-10-11T18:25:57.909Z,11.60
2018-10-11T18:28:29.933Z,13.07
2018-10-11T18:31:01.954Z,12.70
2018-10-11T18:33:34.026Z,12.83
2018-10-11T18:36:06.106Z,12.63
2018-10-11T18:38:38.137Z,12.60
2018-10-11T18:41:10.267Z,13.43
2018-10-11T18:43:42.338Z,12.33
2018-10-11T18:46:16.560Z,12.37
2018-10-11T18:48:48.658Z,12.87
2018-10-11T18:51:20.747Z,13.20
2018-10-11T18:53:52.791Z,14.13
2018-10-11T18:56:24.790Z,13.27
2018-10-11T18:58:56.815Z,13.60
2018-10-11T19:01:28.802Z,12.53
2018-10-11T19:04:00.911Z,13.87
2018-10-11T19:06:33.047Z,14.10
2018-10-11T19:09:06.031Z,13.23
2018-10-11T19:11:38.392Z,13.60
2018-10-11T19:14:10.426Z,12.10
2018-10-11T19:16:42.478Z,14.17
2018-10-11T19:19:14.548Z,12.37
2018-10-11T19:21:46.566Z,12.33
2018-10-11T19:24:18.609Z,13.17
2018-10-11T19:26:50.698Z,14.20
2018-10-11T19:29:22.694Z,12.20
2018-10-11T19:31:54.767Z,12.27
2018-10-11T19:34:26.777Z,13.83
2018-10-11T19:36:59.091Z,13.40
2018-10-11T19:39:32.256Z,13.27
2018-10-11T19:42:04.220Z,13.80
2018-10-11T19:44:36.209Z,13.60
2018-10-11T19:47:08.235Z,14.50
2018-10-11T19:49:40.243Z,13.27
2018-10-11T19:52:12.370Z,13.80
2018-10-11T19:54:44.363Z,13.17
2018-10-11T19:57:16.389Z,13.93
2018-10-11T19:59:48.391Z,13.77
2018-10-11T20:02:20.416Z,13.60
2018-10-11T20:04:52.421Z,13.53
2018-10-11T20:07:24.467Z,14.37
2018-10-11T20:09:56.507Z,13.77
2018-10-11T20:12:28.531Z,13.97
2018-10-11T20:15:00.747Z,13.57
2018-10-11T20:17:33.298Z,13.33
2018-10-11T20:20:05.363Z,13.80
2018-10-11T20:22:37.361Z,13.80
2018-10-11T20:25:09.386Z,13.63
2018-10-11T20:27:41.551Z,12.80
2018-10-11T20:30:13.587Z,13.23
2018-10-11T20:32:45.575Z,13.97
2018-10-11T20:35:17.586Z,13.67
2018-10-11T20:37:49.594Z,12.90
2018-10-11T20:40:21.638Z,11.97
2018-10-11T20:42:53.636Z,13.97
2018-10-11T20:45:25.654Z,13.83
2018-10-11T20:47:57.662Z,13.33
2018-10-11T20:50:29.690Z,14.03
2018-10-11T20:53:01.672Z,14.43
2018-10-11T20:55:33.684Z,14.57
2018-10-11T20:58:05.705Z,14.87
2018-10-11T21:00:37.741Z,14.43
2018-10-11T21:03:09.731Z,14.90
2018-10-11T21:05:41.815Z,16.23
2018-10-11T21:08:13.774Z,18.70
2018-10-11T21:10:45.878Z,17.03
2018-10-11T21:13:17.890Z,14.33
2018-10-11T21:15:49.898Z,15.67
2018-10-11T21:18:21.931Z,15.00
2018-10-11T21:20:53.917Z,15.80
2018-10-11T21:23:25.938Z,16.70
2018-10-11T21:25:57.938Z,16.40
2018-10-11T21:28:30.055Z,16.20
2018-10-11T21:31:02.091Z,15.13
2018-10-11T21:33:34.331Z,15.90
2018-10-11T21:36:06.346Z,17.13
2018-10-11T21:38:38.322Z,14.97
2018-10-11T21:41:10.355Z,16.17
2018-10-11T21:43:42.366Z,15.10
2018-10-11T21:46:14.482Z,14.53
2018-10-11T21:48:46.406Z,15.80
2018-10-11T21:51:18.378Z,15.40
2018-10-11T21:53:50.397Z,14.67
2018-10-11T21:56:22.390Z,16.23
2018-10-11T21:58:54.429Z,16.43
2018-10-11T22:01:26.477Z,16.07
2018-10-11T22:03:58.510Z,14.57
2018-10-11T22:06:30.526Z,15.77
2018-10-11T22:09:04.099Z,14.67
2018-10-11T22:11:36.116Z,14.20
2018-10-11T22:14:08.155Z,15.17
2018-10-11T22:16:40.183Z,13.70
2018-10-11T22:19:12.217Z,13.87
2018-10-11T22:21:44.194Z,14.93
2018-10-11T22:24:16.424Z,15.23
2018-10-11T22:26:48.450Z,15.87
2018-10-11T22:29:20.466Z,15.23
2018-10-11T22:31:52.519Z,14.83
2018-10-11T22:34:24.530Z,14.47
2018-10-11T22:36:56.535Z,16.23
2018-10-11T22:39:28.562Z,14.90
2018-10-11T22:42:00.573Z,14.87
2018-10-11T22:44:32.562Z,14.93
2018-10-11T22:47:04.634Z,14.90
2018-10-11T22:49:36.635Z,15.23
2018-10-11T22:52:08.662Z,15.90
2018-10-11T22:54:40.643Z,14.77
2018-10-11T22:57:12.681Z,15.57
2018-10-11T22:59:44.674Z,15.17
2018-10-11T23:02:16.707Z,15.83
2018-10-11T23:04:48.686Z,15.97
2018-10-11T23:07:20.695Z,17.17
2018-10-11T23:09:52.905Z,16.13
2018-10-11T23:12:24.922Z,17.13
2018-10-11T23:14:56.940Z,15.70
2018-10-11T23:17:28.966Z,17.27
2018-10-11T23:20:00.974Z,17.43
2018-10-11T23:22:33.257Z,17.00
2018-10-11T23:25:05.322Z,17.73
2018-10-11T23:27:37.555Z,17.83
2018-10-11T23:30:10.596Z,18.73
2018-10-11T23:32:42.612Z,17.90
2018-10-11T23:35:14.633Z,18.97
2018-10-11T23:37:46.630Z,17.37
2018-10-11T23:40:18.653Z,18.13
2018-10-11T23:42:50.644Z,19.00
2018-10-11T23:45:22.658Z,19.27
2018-10-11T23:47:54.681Z,19.67
2018-10-11T23:50:26.686Z,19.33
2018-10-11T23:52:58.701Z,17.27
2018-10-11T23:55:31.554Z,20.10
2018-10-11T23:58:03.594Z,19.63
